x

Yucatan Basin - 120 Nm Ese Of Cozumel, Mx (42056) Wave Buoy

8:50am - Thu 18th Dec 2014 All times are CST. -6 hours from GMT.

  • Sig Wave height 4.3ft
  • Swell Direction
  • Peak Period 8s
  • Average Period 5s
  • Wind
    16mph, 20mph gusts
  • Sea Temp 81°f
  • 空気 Temp 79°f
  • Sea Pressure 1018mb
  •  Yucatan Basin - 120 Nm Ese Of Cozumel, Mx
  •  Yucatan Basin - 120 Nm Ese Of Cozumel, Mx

More Historic Weather Station data

Upgrade to MSW Pro to gain access to the past 30 days of data for over 8000 Wavebouys and Weather Stations around the globe.

Join Pro

Comparision Forecast

View Surf forecast
   
Thu 12/18 8:50am 4.5ft 8s 5s 16 20 mph 1018mb 81f 79f
7:50am 4ft 8s 5s 16 18 mph 1017.6mb 81f 79f
6:50am 4.5ft 7s 5s 16 18 mph 1017.3mb 81f 78f
5:50am 4.5ft 7s 5s 16 18 mph 1016.9mb 82f 78f
4:50am 4.5ft 7s 5s 13 16 mph 1016.6mb 82f 78f
3:50am 3.5ft 8s 5s 13 16 mph 1016.6mb 82f 78f
2:50am 4ft 7s 5s 11 16 mph 1016.7mb 82f 78f
1:50am 4ft 7s 5s 13 16 mph 1017mb 82f 78f
12:50am 4ft 6s 5s 13 16 mph 1017.3mb 82f 77f
Wed 12/17 11:50pm 4.5ft 7s 5s 11 16 mph 1017.8mb 82f 78f
10:50pm 4.5ft 7s 5s 16 20 mph 1018mb 82f 78f
9:50pm 4.5ft 8s 5s 13 18 mph 1018.6mb 82f 78f
8:50pm 4.5ft 7s 5s 16 20 mph 1018.2mb 82f 78f
7:50pm 4.5ft 7s 5s 18 22 mph 1017.7mb 82f 78f
6:50pm 4.5ft 7s 5s 18 20 mph 1017.5mb 82f 77f
5:50pm 4.5ft 7s 5s 16 20 mph 1017.2mb 82f 77f
4:50pm 4.5ft 7s 5s 18 22 mph 1016.8mb 82f 77f
3:50pm 4.5ft 8s 5s 18 22 mph 1016.5mb 82f 77f
2:50pm 4.5ft 7s 5s 13 18 mph 1016.5mb 82f 77f
1:50pm 4ft 6s 5s 13 18 mph 1016.9mb 82f 77f
12:50pm 4ft 6s 5s 13 18 mph 1017.9mb 82f 77f
11:50am 4.5ft 6s 5s 16 20 mph 1018.8mb 82f 77f
10:50am 4.5ft 6s 5s 13 16 mph 1019.9mb 82f 77f
9:50am 4.5ft 5s 5s 13 16 mph 1020.5mb 82f 77f
8:50am 4.5ft 6s 5s 13 16 mph 1020.5mb 81f 77f
7:50am 5ft 7s 5s 13 18 mph 1020.1mb 81f 77f
6:50am 5ft 8s 5s 18 22 mph 1019.3mb 81f 77f
5:50am 5ft 6s 5s 18 22 mph 1018.8mb 81f 77f
4:50am 5ft 8s 5s 18 20 mph 1018.4mb 81f 77f
3:50am 5ft 8s 5s 16 20 mph 1018.2mb 81f 77f
2:50am 5ft 8s 5s 16 18 mph 1018mb 81f 77f
1:50am 5ft 8s 5s 16 20 mph 1018.2mb 81f 78f
12:50am 5ft 7s 5s 18 22 mph 1018.8mb 81f 78f
Tue 12/16 11:50pm 5ft 7s 5s 16 18 mph 1019.4mb 81f 78f
10:50pm 4.5ft 7s 5s 13 16 mph 1020.1mb 81f 78f
9:50pm 4.5ft 6s 5s 11 16 mph 1020.4mb 81f 78f
8:50pm 4ft 7s 5s 16 18 mph 1020.1mb 81f 77f
7:50pm 3.5ft 6s 5s 16 20 mph 1019.7mb 81f 77f
6:50pm 3.5ft 6s 4s 13 18 mph 1019.2mb 81f 77f
5:50pm 3ft 5s 4s 13 18 mph 1018.6mb 81f 77f
4:50pm 3ft 5s 4s 13 18 mph 1018.2mb 81f 77f
3:50pm 3ft 6s 4s 16 18 mph 1017.8mb 81f 77f
2:50pm 3ft 5s 4s 13 18 mph 1017.7mb 81f 77f
1:50pm 3ft 6s 4s 16 18 mph 1017.7mb 81f 77f
12:50pm 3.5ft 7s 4s 16 18 mph 1018.1mb 81f 77f
11:50am 3ft 6s 4s 13 18 mph 1018.9mb 81f 76f
10:50am 3.5ft 6s 4s 16 18 mph 1019.6mb 81f 76f
9:50am 3.5ft 6s 4s 16 20 mph 1020mb 81f 76f
8:50am 3.5ft 6s 4s 16 20 mph 1019.9mb 81f 76f
7:50am 3.5ft 6s 4s 16 22 mph 1019.2mb 81f 76f
6:50am 3.5ft 4s 4s 16 18 mph 1018.7mb 81f 76f
5:50am 3.5ft 7s 4s 16 20 mph 1017.8mb 81f 76f
4:50am 3.5ft 6s 4s 18 22 mph 1016.9mb 81f 76f
3:50am 3ft 7s 4s 18 22 mph 1016.6mb 81f 76f
2:50am 3.5ft 6s 4s 16 20 mph 1016.5mb 81f 76f
1:50am 3.5ft 7s 4s 18 22 mph 1016.4mb 81f 76f
12:50am 3ft 7s 4s 16 22 mph 1016.6mb 81f 76f
Mon 12/15 11:50pm 3.5ft 6s 4s 13 18 mph 1017.1mb 81f 76f
10:50pm 3ft 6s 4s 13 18 mph 1017.4mb 81f 76f
9:50pm 3ft 6s 4s 13 18 mph 1017.6mb 81f 77f
8:50pm 3ft 5s 4s 16 20 mph 1017.4mb 81f 77f
7:50pm 3.5ft 5s 4s 18 20 mph 1016.7mb 81f 77f
6:50pm 3ft 5s 4s 18 22 mph 1016.1mb 81f 77f
5:50pm 3.5ft 5s 4s 18 22 mph 1015.4mb 81f 77f
4:50pm 3ft 5s 4s 18 20 mph 1015mb 81f 77f
3:50pm 2.5ft 6s 4s 16 20 mph 1014.6mb 81f 78f
2:50pm 2.5ft 6s 4s 16 18 mph 1014.4mb 81f 77f
1:50pm 2.5ft 6s 4s 16 20 mph 1014.3mb 81f 77f
12:50pm 2.5ft 5s 4s 11 13 mph 1014.9mb 81f 77f
11:50am 2.5ft 6s 4s 11 13 mph 1015.8mb 81f 77f
10:50am 2.5ft 6s 4s 11 16 mph 1016.6mb 81f 77f
9:50am 2.5ft 6s 4s 13 16 mph 1016.9mb 81f 77f
8:50am 2.5ft 6s 5s 11 13 mph 1016.8mb 81f 77f
7:50am 2.5ft 6s 5s 11 16 mph 1016.3mb 81f 76f
6:50am 2.5ft 7s 5s 4 9 mph 1015.8mb 81f 76f
5:50am 2.5ft 6s 5s 9 11 mph 1015.3mb 81f 76f
4:50am 2.5ft 6s 5s 7 11 mph 1015mb 81f 75f
3:50am 2.5ft 6s 5s 7 11 mph 1014.8mb 81f 75f
2:50am 2.5ft 6s 5s 7 9 mph 1014.7mb 81f 75f
1:50am 3ft 6s 5s 7 9 mph 1014.9mb 81f 75f
12:50am 2.5ft 6s 5s 9 11 mph 1015.4mb 81f 75f
Sun 12/14 11:50pm 3ft 6s 5s 11 13 mph 1015.7mb 81f 75f
10:50pm 3ft 6s 5s 11 16 mph 1016.1mb 81f 75f
9:50pm 3.5ft 6s 5s 11 16 mph 1016.2mb 81f 75f
8:50pm 3.5ft 6s 5s 11 13 mph 1016.3mb 81f 75f
7:50pm 3.5ft 6s 5s 11 13 mph 1016mb 81f 75f
6:50pm 3.5ft 6s 5s 11 16 mph 1015.4mb 81f 75f
5:50pm 3.5ft 6s 5s 11 16 mph 1015.1mb 81f 75f
4:50pm 3.5ft 7s 5s 11 16 mph 1014.7mb 81f 75f
3:50pm 4ft 6s 5s 11 13 mph 1014.6mb 81f 75f